sensor_id;sensor_type;location;lat;lon;timestamp;P1;durP1;ratioP1;P2;durP2;ratioP2
8199;SDS011;4141;47.880;12.340;2022-08-24T00:01:55;8.83;;;3.73;;
8199;SDS011;4141;47.880;12.340;2022-08-24T00:04:25;4.87;;;3.80;;
8199;SDS011;4141;47.880;12.340;2022-08-24T00:06:57;4.43;;;3.87;;
8199;SDS011;4141;47.880;12.340;2022-08-24T00:09:26;5.17;;;4.00;;
8199;SDS011;4141;47.880;12.340;2022-08-24T00:11:54;5.93;;;4.30;;
8199;SDS011;4141;47.880;12.340;2022-08-24T00:14:22;7.57;;;4.80;;
8199;SDS011;4141;47.880;12.340;2022-08-24T00:16:51;5.37;;;3.90;;
8199;SDS011;4141;47.880;12.340;2022-08-24T00:19:19;5.60;;;4.10;;
8199;SDS011;4141;47.880;12.340;2022-08-24T00:21:49;5.87;;;4.17;;
8199;SDS011;4141;47.880;12.340;2022-08-24T00:24:17;6.87;;;4.60;;
8199;SDS011;4141;47.880;12.340;2022-08-24T00:26:46;5.87;;;5.00;;
8199;SDS011;4141;47.880;12.340;2022-08-24T00:29:15;6.50;;;4.83;;
8199;SDS011;4141;47.880;12.340;2022-08-24T00:31:44;6.50;;;4.97;;
8199;SDS011;4141;47.880;12.340;2022-08-24T00:34:13;8.67;;;5.30;;
8199;SDS011;4141;47.880;12.340;2022-08-24T00:36:43;7.20;;;5.50;;
8199;SDS011;4141;47.880;12.340;2022-08-24T00:39:14;8.13;;;5.07;;
8199;SDS011;4141;47.880;12.340;2022-08-24T00:41:43;4.87;;;3.73;;
8199;SDS011;4141;47.880;12.340;2022-08-24T00:44:13;7.37;;;4.87;;
8199;SDS011;4141;47.880;12.340;2022-08-24T00:46:43;4.83;;;3.57;;
8199;SDS011;4141;47.880;12.340;2022-08-24T00:49:17;6.40;;;4.63;;
8199;SDS011;4141;47.880;12.340;2022-08-24T00:51:50;6.80;;;4.80;;
8199;SDS011;4141;47.880;12.340;2022-08-24T00:54:23;5.97;;;5.10;;
8199;SDS011;4141;47.880;12.340;2022-08-24T00:56:53;10.10;;;4.90;;
8199;SDS011;4141;47.880;12.340;2022-08-24T00:59:26;5.27;;;3.60;;
8199;SDS011;4141;47.880;12.340;2022-08-24T01:01:58;5.10;;;3.90;;
8199;SDS011;4141;47.880;12.340;2022-08-24T01:04:42;5.60;;;4.17;;
8199;SDS011;4141;47.880;12.340;2022-08-24T01:07:14;4.20;;;3.70;;
8199;SDS011;4141;47.880;12.340;2022-08-24T01:09:45;6.07;;;3.90;;
8199;SDS011;4141;47.880;12.340;2022-08-24T01:12:13;5.43;;;3.73;;
8199;SDS011;4141;47.880;12.340;2022-08-24T01:14:42;5.27;;;4.00;;
8199;SDS011;4141;47.880;12.340;2022-08-24T01:17:11;5.80;;;3.83;;
8199;SDS011;4141;47.880;12.340;2022-08-24T01:20:05;4.27;;;3.87;;
8199;SDS011;4141;47.880;12.340;2022-08-24T01:22:43;4.03;;;3.63;;
8199;SDS011;4141;47.880;12.340;2022-08-24T01:25:19;7.97;;;4.70;;
8199;SDS011;4141;47.880;12.340;2022-08-24T01:27:48;4.83;;;3.90;;
8199;SDS011;4141;47.880;12.340;2022-08-24T01:30:17;4.10;;;3.37;;
8199;SDS011;4141;47.880;12.340;2022-08-24T01:32:57;5.30;;;3.80;;
8199;SDS011;4141;47.880;12.340;2022-08-24T01:35:28;4.80;;;4.13;;
8199;SDS011;4141;47.880;12.340;2022-08-24T01:37:58;5.30;;;3.70;;
8199;SDS011;4141;47.880;12.340;2022-08-24T01:40:31;3.90;;;3.30;;
8199;SDS011;4141;47.880;12.340;2022-08-24T01:43:02;4.93;;;3.60;;
8199;SDS011;4141;47.880;12.340;2022-08-24T01:45:31;4.40;;;4.00;;
8199;SDS011;4141;47.880;12.340;2022-08-24T01:48:00;5.23;;;3.80;;
8199;SDS011;4141;47.880;12.340;2022-08-24T01:50:29;5.57;;;3.93;;
8199;SDS011;4141;47.880;12.340;2022-08-24T01:52:57;6.30;;;3.70;;
8199;SDS011;4141;47.880;12.340;2022-08-24T01:55:32;5.97;;;3.53;;
8199;SDS011;4141;47.880;12.340;2022-08-24T01:58:01;6.20;;;3.50;;
8199;SDS011;4141;47.880;12.340;2022-08-24T02:00:31;10.33;;;4.80;;
8199;SDS011;4141;47.880;12.340;2022-08-24T02:03:00;3.90;;;3.37;;
8199;SDS011;4141;47.880;12.340;2022-08-24T02:05:29;6.23;;;3.87;;
8199;SDS011;4141;47.880;12.340;2022-08-24T02:07:58;7.00;;;3.40;;
8199;SDS011;4141;47.880;12.340;2022-08-24T02:10:26;5.53;;;3.77;;
8199;SDS011;4141;47.880;12.340;2022-08-24T02:12:57;4.40;;;3.43;;
8199;SDS011;4141;47.880;12.340;2022-08-24T02:15:27;4.00;;;3.40;;
8199;SDS011;4141;47.880;12.340;2022-08-24T02:17:56;7.63;;;4.10;;
8199;SDS011;4141;47.880;12.340;2022-08-24T02:20:24;7.10;;;3.97;;
8199;SDS011;4141;47.880;12.340;2022-08-24T02:22:53;6.00;;;3.50;;
8199;SDS011;4141;47.880;12.340;2022-08-24T02:25:22;7.47;;;4.00;;
8199;SDS011;4141;47.880;12.340;2022-08-24T02:27:57;5.20;;;3.47;;
8199;SDS011;4141;47.880;12.340;2022-08-24T02:30:25;7.13;;;3.90;;
8199;SDS011;4141;47.880;12.340;2022-08-24T02:32:54;6.83;;;3.53;;
8199;SDS011;4141;47.880;12.340;2022-08-24T02:35:23;5.93;;;2.97;;
8199;SDS011;4141;47.880;12.340;2022-08-24T02:37:52;4.33;;;2.90;;
8199;SDS011;4141;47.880;12.340;2022-08-24T02:40:24;6.77;;;2.77;;
8199;SDS011;4141;47.880;12.340;2022-08-24T02:42:53;4.83;;;3.33;;
8199;SDS011;4141;47.880;12.340;2022-08-24T02:45:23;3.03;;;2.73;;
8199;SDS011;4141;47.880;12.340;2022-08-24T02:47:51;5.37;;;3.10;;
8199;SDS011;4141;47.880;12.340;2022-08-24T02:50:20;6.23;;;3.80;;
8199;SDS011;4141;47.880;12.340;2022-08-24T02:52:48;4.20;;;2.60;;
8199;SDS011;4141;47.880;12.340;2022-08-24T02:55:18;6.60;;;3.47;;
8199;SDS011;4141;47.880;12.340;2022-08-24T02:57:47;4.60;;;3.20;;
8199;SDS011;4141;47.880;12.340;2022-08-24T03:00:17;5.20;;;3.47;;
8199;SDS011;4141;47.880;12.340;2022-08-24T03:02:48;6.00;;;3.57;;
8199;SDS011;4141;47.880;12.340;2022-08-24T03:05:17;4.87;;;3.70;;
8199;SDS011;4141;47.880;12.340;2022-08-24T03:07:46;5.10;;;3.10;;
8199;SDS011;4141;47.880;12.340;2022-08-24T03:10:17;7.17;;;3.80;;
8199;SDS011;4141;47.880;12.340;2022-08-24T03:12:46;4.33;;;3.60;;
8199;SDS011;4141;47.880;12.340;2022-08-24T03:15:15;4.20;;;3.80;;
8199;SDS011;4141;47.880;12.340;2022-08-24T03:17:47;5.23;;;4.00;;
8199;SDS011;4141;47.880;12.340;2022-08-24T03:20:17;5.60;;;4.07;;
8199;SDS011;4141;47.880;12.340;2022-08-24T03:22:47;8.03;;;4.10;;
8199;SDS011;4141;47.880;12.340;2022-08-24T03:25:15;11.70;;;5.17;;
8199;SDS011;4141;47.880;12.340;2022-08-24T03:27:44;5.20;;;4.70;;
8199;SDS011;4141;47.880;12.340;2022-08-24T03:30:15;12.63;;;5.57;;
8199;SDS011;4141;47.880;12.340;2022-08-24T03:32:43;5.77;;;4.37;;
8199;SDS011;4141;47.880;12.340;2022-08-24T03:35:14;5.80;;;4.60;;
8199;SDS011;4141;47.880;12.340;2022-08-24T03:37:43;6.20;;;4.83;;
8199;SDS011;4141;47.880;12.340;2022-08-24T03:40:12;7.03;;;5.17;;
8199;SDS011;4141;47.880;12.340;2022-08-24T03:42:49;7.60;;;5.20;;
8199;SDS011;4141;47.880;12.340;2022-08-24T03:45:18;5.73;;;4.63;;
8199;SDS011;4141;47.880;12.340;2022-08-24T03:47:47;7.33;;;5.57;;
8199;SDS011;4141;47.880;12.340;2022-08-24T03:50:16;7.67;;;6.23;;
8199;SDS011;4141;47.880;12.340;2022-08-24T03:52:45;8.00;;;5.20;;
8199;SDS011;4141;47.880;12.340;2022-08-24T03:55:13;12.73;;;6.00;;
8199;SDS011;4141;47.880;12.340;2022-08-24T03:57:41;7.63;;;6.80;;
8199;SDS011;4141;47.880;12.340;2022-08-24T04:00:10;7.00;;;5.37;;
8199;SDS011;4141;47.880;12.340;2022-08-24T04:02:40;6.70;;;5.53;;
8199;SDS011;4141;47.880;12.340;2022-08-24T04:05:10;11.00;;;6.10;;
8199;SDS011;4141;47.880;12.340;2022-08-24T04:07:40;6.50;;;5.23;;
8199;SDS011;4141;47.880;12.340;2022-08-24T04:10:09;9.50;;;5.30;;
8199;SDS011;4141;47.880;12.340;2022-08-24T04:12:38;9.83;;;6.63;;
8199;SDS011;4141;47.880;12.340;2022-08-24T04:15:07;8.87;;;6.47;;
8199;SDS011;4141;47.880;12.340;2022-08-24T04:17:37;9.80;;;6.30;;
8199;SDS011;4141;47.880;12.340;2022-08-24T04:20:06;9.33;;;5.23;;
8199;SDS011;4141;47.880;12.340;2022-08-24T04:22:35;6.77;;;4.80;;
8199;SDS011;4141;47.880;12.340;2022-08-24T04:25:05;7.57;;;5.10;;
8199;SDS011;4141;47.880;12.340;2022-08-24T04:27:36;10.87;;;5.63;;
8199;SDS011;4141;47.880;12.340;2022-08-24T04:30:05;5.53;;;4.73;;
8199;SDS011;4141;47.880;12.340;2022-08-24T04:32:34;6.10;;;4.00;;
8199;SDS011;4141;47.880;12.340;2022-08-24T04:35:03;6.83;;;3.83;;
8199;SDS011;4141;47.880;12.340;2022-08-24T04:37:31;4.97;;;3.87;;
8199;SDS011;4141;47.880;12.340;2022-08-24T04:40:00;5.30;;;3.80;;
8199;SDS011;4141;47.880;12.340;2022-08-24T04:42:31;4.97;;;4.10;;
8199;SDS011;4141;47.880;12.340;2022-08-24T04:44:59;3.50;;;3.20;;
8199;SDS011;4141;47.880;12.340;2022-08-24T04:47:28;6.00;;;3.50;;
8199;SDS011;4141;47.880;12.340;2022-08-24T04:49:56;7.50;;;3.50;;
8199;SDS011;4141;47.880;12.340;2022-08-24T04:52:25;4.27;;;3.87;;
8199;SDS011;4141;47.880;12.340;2022-08-24T04:54:55;7.10;;;3.70;;
8199;SDS011;4141;47.880;12.340;2022-08-24T04:57:23;7.23;;;4.23;;
8199;SDS011;4141;47.880;12.340;2022-08-24T04:59:55;4.50;;;3.90;;
8199;SDS011;4141;47.880;12.340;2022-08-24T05:02:24;3.77;;;3.37;;
8199;SDS011;4141;47.880;12.340;2022-08-24T05:04:54;4.73;;;3.50;;
8199;SDS011;4141;47.880;12.340;2022-08-24T05:07:24;3.53;;;3.20;;
8199;SDS011;4141;47.880;12.340;2022-08-24T05:09:53;5.30;;;3.50;;
8199;SDS011;4141;47.880;12.340;2022-08-24T05:12:24;5.53;;;3.20;;
8199;SDS011;4141;47.880;12.340;2022-08-24T05:14:52;5.03;;;3.47;;
8199;SDS011;4141;47.880;12.340;2022-08-24T05:17:22;5.07;;;3.97;;
8199;SDS011;4141;47.880;12.340;2022-08-24T05:19:50;5.13;;;3.23;;
8199;SDS011;4141;47.880;12.340;2022-08-24T05:22:19;6.00;;;3.40;;
8199;SDS011;4141;47.880;12.340;2022-08-24T05:24:48;11.23;;;4.07;;
8199;SDS011;4141;47.880;12.340;2022-08-24T05:27:16;10.23;;;4.17;;
8199;SDS011;4141;47.880;12.340;2022-08-24T05:29:44;6.27;;;4.33;;
8199;SDS011;4141;47.880;12.340;2022-08-24T05:32:15;6.70;;;3.50;;
8199;SDS011;4141;47.880;12.340;2022-08-24T05:34:45;4.30;;;3.60;;
8199;SDS011;4141;47.880;12.340;2022-08-24T05:37:13;4.40;;;3.47;;
8199;SDS011;4141;47.880;12.340;2022-08-24T05:39:41;4.37;;;3.47;;
8199;SDS011;4141;47.880;12.340;2022-08-24T05:42:10;6.67;;;3.30;;
8199;SDS011;4141;47.880;12.340;2022-08-24T05:44:39;6.73;;;2.37;;
8199;SDS011;4141;47.880;12.340;2022-08-24T05:47:07;4.17;;;2.90;;
8199;SDS011;4141;47.880;12.340;2022-08-24T05:49:35;3.77;;;2.37;;
8199;SDS011;4141;47.880;12.340;2022-08-24T05:52:08;5.07;;;2.87;;
8199;SDS011;4141;47.880;12.340;2022-08-24T05:54:37;8.37;;;3.10;;
8199;SDS011;4141;47.880;12.340;2022-08-24T05:57:08;4.70;;;2.73;;
8199;SDS011;4141;47.880;12.340;2022-08-24T05:59:36;6.13;;;3.70;;
8199;SDS011;4141;47.880;12.340;2022-08-24T06:02:06;6.93;;;3.87;;
8199;SDS011;4141;47.880;12.340;2022-08-24T06:04:34;4.80;;;3.40;;
8199;SDS011;4141;47.880;12.340;2022-08-24T06:07:05;3.37;;;2.83;;
8199;SDS011;4141;47.880;12.340;2022-08-24T06:09:36;6.10;;;3.80;;
8199;SDS011;4141;47.880;12.340;2022-08-24T06:12:05;8.50;;;3.37;;
8199;SDS011;4141;47.880;12.340;2022-08-24T06:14:34;7.10;;;3.27;;
8199;SDS011;4141;47.880;12.340;2022-08-24T06:17:03;6.67;;;3.47;;
8199;SDS011;4141;47.880;12.340;2022-08-24T06:19:34;4.53;;;3.30;;
8199;SDS011;4141;47.880;12.340;2022-08-24T06:22:03;7.73;;;3.50;;
8199;SDS011;4141;47.880;12.340;2022-08-24T06:24:31;9.20;;;4.20;;
8199;SDS011;4141;47.880;12.340;2022-08-24T06:27:24;4.70;;;3.83;;
8199;SDS011;4141;47.880;12.340;2022-08-24T06:29:53;7.70;;;4.00;;
8199;SDS011;4141;47.880;12.340;2022-08-24T06:32:23;5.17;;;3.90;;
8199;SDS011;4141;47.880;12.340;2022-08-24T06:34:54;6.33;;;3.10;;
8199;SDS011;4141;47.880;12.340;2022-08-24T06:37:24;4.30;;;3.10;;
8199;SDS011;4141;47.880;12.340;2022-08-24T06:39:56;4.40;;;3.10;;
8199;SDS011;4141;47.880;12.340;2022-08-24T06:42:25;4.67;;;3.30;;
8199;SDS011;4141;47.880;12.340;2022-08-24T06:44:54;2.90;;;2.50;;
8199;SDS011;4141;47.880;12.340;2022-08-24T06:47:23;4.83;;;2.47;;
8199;SDS011;4141;47.880;12.340;2022-08-24T06:49:51;6.53;;;3.13;;
8199;SDS011;4141;47.880;12.340;2022-08-24T06:52:19;4.43;;;2.67;;
8199;SDS011;4141;47.880;12.340;2022-08-24T06:54:48;3.40;;;2.50;;
8199;SDS011;4141;47.880;12.340;2022-08-24T06:57:18;3.60;;;2.67;;
8199;SDS011;4141;47.880;12.340;2022-08-24T06:59:46;9.13;;;3.30;;
8199;SDS011;4141;47.880;12.340;2022-08-24T07:02:14;2.60;;;2.20;;
8199;SDS011;4141;47.880;12.340;2022-08-24T07:04:44;8.23;;;2.40;;
8199;SDS011;4141;47.880;12.340;2022-08-24T07:07:13;5.53;;;2.53;;
8199;SDS011;4141;47.880;12.340;2022-08-24T07:09:41;4.70;;;2.70;;
8199;SDS011;4141;47.880;12.340;2022-08-24T07:12:09;4.63;;;3.17;;
8199;SDS011;4141;47.880;12.340;2022-08-24T07:14:39;4.80;;;2.63;;
8199;SDS011;4141;47.880;12.340;2022-08-24T07:17:07;6.67;;;2.93;;
8199;SDS011;4141;47.880;12.340;2022-08-24T07:19:35;3.97;;;2.60;;
8199;SDS011;4141;47.880;12.340;2022-08-24T07:22:04;5.70;;;2.80;;
8199;SDS011;4141;47.880;12.340;2022-08-24T07:24:32;5.60;;;2.90;;
8199;SDS011;4141;47.880;12.340;2022-08-24T07:27:00;5.37;;;3.17;;
8199;SDS011;4141;47.880;12.340;2022-08-24T07:29:29;9.07;;;2.93;;
8199;SDS011;4141;47.880;12.340;2022-08-24T07:32:17;6.63;;;2.70;;
8199;SDS011;4141;47.880;12.340;2022-08-24T07:34:45;4.70;;;2.70;;
8199;SDS011;4141;47.880;12.340;2022-08-24T07:37:14;4.80;;;2.70;;
8199;SDS011;4141;47.880;12.340;2022-08-24T07:39:43;6.60;;;3.20;;
8199;SDS011;4141;47.880;12.340;2022-08-24T07:42:11;7.40;;;2.93;;
8199;SDS011;4141;47.880;12.340;2022-08-24T07:44:46;7.60;;;2.93;;
8199;SDS011;4141;47.880;12.340;2022-08-24T07:47:14;4.13;;;2.70;;
8199;SDS011;4141;47.880;12.340;2022-08-24T07:50:04;10.23;;;3.30;;
8199;SDS011;4141;47.880;12.340;2022-08-24T07:52:33;5.60;;;2.83;;
8199;SDS011;4141;47.880;12.340;2022-08-24T07:55:02;5.27;;;2.57;;
8199;SDS011;4141;47.880;12.340;2022-08-24T07:57:31;6.23;;;3.33;;
8199;SDS011;4141;47.880;12.340;2022-08-24T08:00:00;5.87;;;3.40;;
8199;SDS011;4141;47.880;12.340;2022-08-24T08:02:34;3.60;;;2.80;;
8199;SDS011;4141;47.880;12.340;2022-08-24T08:05:05;5.63;;;3.30;;
8199;SDS011;4141;47.880;12.340;2022-08-24T08:07:34;9.83;;;2.90;;
8199;SDS011;4141;47.880;12.340;2022-08-24T08:10:03;5.07;;;3.13;;
8199;SDS011;4141;47.880;12.340;2022-08-24T08:12:31;8.30;;;3.10;;
8199;SDS011;4141;47.880;12.340;2022-08-24T08:15:00;5.57;;;3.23;;
8199;SDS011;4141;47.880;12.340;2022-08-24T08:17:29;7.17;;;3.27;;
8199;SDS011;4141;47.880;12.340;2022-08-24T08:19:59;5.23;;;3.27;;
8199;SDS011;4141;47.880;12.340;2022-08-24T08:22:27;6.33;;;3.60;;
8199;SDS011;4141;47.880;12.340;2022-08-24T08:25:13;4.23;;;2.80;;
8199;SDS011;4141;47.880;12.340;2022-08-24T08:27:41;5.20;;;3.17;;
8199;SDS011;4141;47.880;12.340;2022-08-24T08:30:10;6.50;;;3.00;;
8199;SDS011;4141;47.880;12.340;2022-08-24T08:32:38;9.57;;;3.47;;
8199;SDS011;4141;47.880;12.340;2022-08-24T08:35:08;4.70;;;3.53;;
8199;SDS011;4141;47.880;12.340;2022-08-24T08:37:37;4.83;;;3.43;;
8199;SDS011;4141;47.880;12.340;2022-08-24T08:40:06;7.93;;;3.07;;
8199;SDS011;4141;47.880;12.340;2022-08-24T08:42:43;4.20;;;3.00;;
8199;SDS011;4141;47.880;12.340;2022-08-24T08:45:25;4.70;;;2.90;;
8199;SDS011;4141;47.880;12.340;2022-08-24T08:51:30;6.77;;;3.57;;
8199;SDS011;4141;47.880;12.340;2022-08-24T08:54:13;3.77;;;3.00;;
8199;SDS011;4141;47.880;12.340;2022-08-24T08:56:59;6.93;;;3.57;;
8199;SDS011;4141;47.880;12.340;2022-08-24T08:59:59;5.57;;;3.20;;
8199;SDS011;4141;47.880;12.340;2022-08-24T09:02:44;6.13;;;4.07;;
8199;SDS011;4141;47.880;12.340;2022-08-24T09:05:36;5.23;;;3.13;;
8199;SDS011;4141;47.880;12.340;2022-08-24T09:08:14;5.17;;;3.03;;
8199;SDS011;4141;47.880;12.340;2022-08-24T09:10:52;5.30;;;3.37;;
8199;SDS011;4141;47.880;12.340;2022-08-24T09:13:28;5.90;;;3.10;;
8199;SDS011;4141;47.880;12.340;2022-08-24T09:16:19;9.40;;;4.30;;
8199;SDS011;4141;47.880;12.340;2022-08-24T09:19:01;7.50;;;3.20;;
8199;SDS011;4141;47.880;12.340;2022-08-24T09:21:52;4.33;;;2.93;;
8199;SDS011;4141;47.880;12.340;2022-08-24T09:24:41;5.63;;;3.10;;
8199;SDS011;4141;47.880;12.340;2022-08-24T09:27:45;5.60;;;3.20;;
8199;SDS011;4141;47.880;12.340;2022-08-24T09:30:20;5.53;;;3.30;;
8199;SDS011;4141;47.880;12.340;2022-08-24T09:32:54;7.37;;;3.73;;
8199;SDS011;4141;47.880;12.340;2022-08-24T09:35:31;5.10;;;3.10;;
8199;SDS011;4141;47.880;12.340;2022-08-24T09:38:06;4.70;;;3.23;;
8199;SDS011;4141;47.880;12.340;2022-08-24T09:40:49;3.37;;;3.07;;
8199;SDS011;4141;47.880;12.340;2022-08-24T09:43:35;6.60;;;4.00;;
8199;SDS011;4141;47.880;12.340;2022-08-24T09:46:23;10.60;;;3.07;;
8199;SDS011;4141;47.880;12.340;2022-08-24T09:49:15;6.90;;;3.90;;
8199;SDS011;4141;47.880;12.340;2022-08-24T09:52:17;4.70;;;2.40;;
8199;SDS011;4141;47.880;12.340;2022-08-24T09:54:58;5.23;;;3.37;;
8199;SDS011;4141;47.880;12.340;2022-08-24T09:57:56;5.77;;;3.00;;
8199;SDS011;4141;47.880;12.340;2022-08-24T10:00:36;4.70;;;3.33;;
8199;SDS011;4141;47.880;12.340;2022-08-24T10:03:10;5.70;;;2.90;;
8199;SDS011;4141;47.880;12.340;2022-08-24T10:06:11;5.10;;;3.60;;
8199;SDS011;4141;47.880;12.340;2022-08-24T10:08:49;4.20;;;3.03;;
8199;SDS011;4141;47.880;12.340;2022-08-24T10:11:32;4.40;;;3.23;;
8199;SDS011;4141;47.880;12.340;2022-08-24T10:14:08;6.73;;;3.00;;
8199;SDS011;4141;47.880;12.340;2022-08-24T10:16:42;4.17;;;2.67;;
8199;SDS011;4141;47.880;12.340;2022-08-24T10:19:17;9.27;;;3.03;;
8199;SDS011;4141;47.880;12.340;2022-08-24T10:22:16;6.47;;;2.67;;
8199;SDS011;4141;47.880;12.340;2022-08-24T10:25:10;10.60;;;3.10;;
8199;SDS011;4141;47.880;12.340;2022-08-24T10:27:51;4.40;;;2.37;;
8199;SDS011;4141;47.880;12.340;2022-08-24T10:33:23;4.03;;;2.40;;
8199;SDS011;4141;47.880;12.340;2022-08-24T10:35:56;5.67;;;3.00;;
8199;SDS011;4141;47.880;12.340;2022-08-24T10:38:47;3.43;;;2.23;;
8199;SDS011;4141;47.880;12.340;2022-08-24T10:45:16;8.13;;;2.70;;
8199;SDS011;4141;47.880;12.340;2022-08-24T10:48:03;6.80;;;2.20;;
8199;SDS011;4141;47.880;12.340;2022-08-24T10:50:45;6.23;;;2.63;;
8199;SDS011;4141;47.880;12.340;2022-08-24T10:53:21;2.80;;;2.00;;
8199;SDS011;4141;47.880;12.340;2022-08-24T10:56:08;2.47;;;2.20;;
8199;SDS011;4141;47.880;12.340;2022-08-24T10:58:43;3.73;;;2.50;;
8199;SDS011;4141;47.880;12.340;2022-08-24T11:01:26;6.10;;;2.50;;
8199;SDS011;4141;47.880;12.340;2022-08-24T11:03:59;5.60;;;2.67;;
8199;SDS011;4141;47.880;12.340;2022-08-24T11:06:31;4.07;;;2.07;;
8199;SDS011;4141;47.880;12.340;2022-08-24T11:09:04;3.53;;;2.90;;
8199;SDS011;4141;47.880;12.340;2022-08-24T11:11:35;4.33;;;2.50;;
8199;SDS011;4141;47.880;12.340;2022-08-24T11:16:42;6.53;;;2.90;;
8199;SDS011;4141;47.880;12.340;2022-08-24T11:19:13;3.13;;;2.10;;
8199;SDS011;4141;47.880;12.340;2022-08-24T11:21:45;8.20;;;2.70;;
8199;SDS011;4141;47.880;12.340;2022-08-24T11:24:27;3.00;;;2.30;;
8199;SDS011;4141;47.880;12.340;2022-08-24T11:26:58;5.10;;;2.77;;
8199;SDS011;4141;47.880;12.340;2022-08-24T11:29:43;3.23;;;2.20;;
8199;SDS011;4141;47.880;12.340;2022-08-24T11:32:25;5.17;;;2.03;;
8199;SDS011;4141;47.880;12.340;2022-08-24T11:37:36;5.47;;;2.80;;
8199;SDS011;4141;47.880;12.340;2022-08-24T11:40:05;3.67;;;2.30;;
8199;SDS011;4141;47.880;12.340;2022-08-24T11:42:38;4.47;;;2.63;;
8199;SDS011;4141;47.880;12.340;2022-08-24T11:45:33;6.53;;;2.40;;
8199;SDS011;4141;47.880;12.340;2022-08-24T11:48:07;3.40;;;2.23;;
8199;SDS011;4141;47.880;12.340;2022-08-24T11:50:44;3.27;;;1.90;;
8199;SDS011;4141;47.880;12.340;2022-08-24T11:53:20;4.00;;;2.10;;
8199;SDS011;4141;47.880;12.340;2022-08-24T11:55:54;9.50;;;2.43;;
8199;SDS011;4141;47.880;12.340;2022-08-24T11:58:37;3.23;;;2.00;;
8199;SDS011;4141;47.880;12.340;2022-08-24T12:01:11;3.73;;;2.20;;
8199;SDS011;4141;47.880;12.340;2022-08-24T12:03:46;2.10;;;1.80;;
8199;SDS011;4141;47.880;12.340;2022-08-24T12:06:23;2.50;;;1.60;;
8199;SDS011;4141;47.880;12.340;2022-08-24T12:09:00;3.17;;;1.60;;
8199;SDS011;4141;47.880;12.340;2022-08-24T12:11:35;3.67;;;2.00;;
8199;SDS011;4141;47.880;12.340;2022-08-24T12:14:09;4.70;;;1.93;;
8199;SDS011;4141;47.880;12.340;2022-08-24T12:16:58;5.27;;;1.87;;
8199;SDS011;4141;47.880;12.340;2022-08-24T12:19:29;2.40;;;1.70;;
8199;SDS011;4141;47.880;12.340;2022-08-24T12:22:02;5.30;;;2.10;;
8199;SDS011;4141;47.880;12.340;2022-08-24T12:24:34;3.33;;;1.60;;
8199;SDS011;4141;47.880;12.340;2022-08-24T12:27:07;4.37;;;2.43;;
8199;SDS011;4141;47.880;12.340;2022-08-24T12:29:39;5.47;;;2.40;;
8199;SDS011;4141;47.880;12.340;2022-08-24T12:32:11;5.23;;;2.10;;
8199;SDS011;4141;47.880;12.340;2022-08-24T12:34:45;7.43;;;2.13;;
8199;SDS011;4141;47.880;12.340;2022-08-24T12:37:18;4.20;;;2.30;;
8199;SDS011;4141;47.880;12.340;2022-08-24T12:39:52;4.60;;;2.30;;
8199;SDS011;4141;47.880;12.340;2022-08-24T12:45:24;4.73;;;2.00;;
8199;SDS011;4141;47.880;12.340;2022-08-24T12:47:53;4.00;;;2.40;;
8199;SDS011;4141;47.880;12.340;2022-08-24T12:50:27;2.90;;;1.93;;
8199;SDS011;4141;47.880;12.340;2022-08-24T12:53:07;4.27;;;2.40;;
8199;SDS011;4141;47.880;12.340;2022-08-24T12:56:00;3.50;;;2.40;;
8199;SDS011;4141;47.880;12.340;2022-08-24T12:58:48;3.17;;;2.10;;
8199;SDS011;4141;47.880;12.340;2022-08-24T13:01:21;4.60;;;2.10;;
8199;SDS011;4141;47.880;12.340;2022-08-24T13:04:02;4.97;;;2.03;;
8199;SDS011;4141;47.880;12.340;2022-08-24T13:06:37;5.50;;;1.77;;
8199;SDS011;4141;47.880;12.340;2022-08-24T13:09:13;4.20;;;2.10;;
8199;SDS011;4141;47.880;12.340;2022-08-24T13:11:46;2.40;;;1.87;;
8199;SDS011;4141;47.880;12.340;2022-08-24T13:14:15;9.13;;;2.10;;
8199;SDS011;4141;47.880;12.340;2022-08-24T13:16:51;2.47;;;1.97;;
8199;SDS011;4141;47.880;12.340;2022-08-24T13:19:36;17.00;;;3.00;;
8199;SDS011;4141;47.880;12.340;2022-08-24T13:28:08;3.70;;;1.70;;
8199;SDS011;4141;47.880;12.340;2022-08-24T13:33:33;3.97;;;1.90;;
8199;SDS011;4141;47.880;12.340;2022-08-24T13:36:06;3.73;;;2.07;;
8199;SDS011;4141;47.880;12.340;2022-08-24T13:38:59;4.87;;;2.23;;
8199;SDS011;4141;47.880;12.340;2022-08-24T13:44:24;6.90;;;1.43;;
8199;SDS011;4141;47.880;12.340;2022-08-24T13:47:00;2.47;;;1.73;;
8199;SDS011;4141;47.880;12.340;2022-08-24T13:49:38;2.10;;;1.70;;
8199;SDS011;4141;47.880;12.340;2022-08-24T13:52:14;9.20;;;1.80;;
8199;SDS011;4141;47.880;12.340;2022-08-24T13:54:56;2.80;;;1.90;;
8199;SDS011;4141;47.880;12.340;2022-08-24T13:57:35;2.57;;;1.40;;
8199;SDS011;4141;47.880;12.340;2022-08-24T14:00:13;14.50;;;2.17;;
8199;SDS011;4141;47.880;12.340;2022-08-24T14:03:11;2.80;;;1.40;;
8199;SDS011;4141;47.880;12.340;2022-08-24T14:05:48;2.60;;;2.00;;
8199;SDS011;4141;47.880;12.340;2022-08-24T14:08:34;2.27;;;1.73;;
8199;SDS011;4141;47.880;12.340;2022-08-24T14:11:11;2.70;;;1.87;;
8199;SDS011;4141;47.880;12.340;2022-08-24T14:13:47;7.93;;;2.10;;
8199;SDS011;4141;47.880;12.340;2022-08-24T14:16:31;4.93;;;1.93;;
8199;SDS011;4141;47.880;12.340;2022-08-24T14:19:24;4.20;;;1.97;;
8199;SDS011;4141;47.880;12.340;2022-08-24T14:21:56;4.27;;;2.07;;
8199;SDS011;4141;47.880;12.340;2022-08-24T14:24:30;3.17;;;2.40;;
8199;SDS011;4141;47.880;12.340;2022-08-24T14:27:13;4.17;;;2.30;;
8199;SDS011;4141;47.880;12.340;2022-08-24T14:33:23;3.53;;;2.10;;
8199;SDS011;4141;47.880;12.340;2022-08-24T14:36:10;8.23;;;2.60;;
8199;SDS011;4141;47.880;12.340;2022-08-24T14:38:56;7.27;;;2.83;;
8199;SDS011;4141;47.880;12.340;2022-08-24T14:41:33;2.77;;;2.10;;
8199;SDS011;4141;47.880;12.340;2022-08-24T14:44:23;2.43;;;1.87;;
8199;SDS011;4141;47.880;12.340;2022-08-24T14:47:01;4.00;;;2.10;;
8199;SDS011;4141;47.880;12.340;2022-08-24T14:49:36;2.83;;;2.20;;
8199;SDS011;4141;47.880;12.340;2022-08-24T14:52:16;5.30;;;1.93;;
8199;SDS011;4141;47.880;12.340;2022-08-24T14:55:02;3.90;;;2.50;;
8199;SDS011;4141;47.880;12.340;2022-08-24T14:57:40;5.23;;;2.80;;
8199;SDS011;4141;47.880;12.340;2022-08-24T15:00:13;3.03;;;2.40;;
8199;SDS011;4141;47.880;12.340;2022-08-24T15:05:40;4.07;;;1.97;;
8199;SDS011;4141;47.880;12.340;2022-08-24T15:08:28;6.80;;;3.10;;
8199;SDS011;4141;47.880;12.340;2022-08-24T15:11:01;5.90;;;1.93;;
8199;SDS011;4141;47.880;12.340;2022-08-24T15:13:40;2.43;;;2.23;;
8199;SDS011;4141;47.880;12.340;2022-08-24T15:16:13;4.67;;;2.27;;
8199;SDS011;4141;47.880;12.340;2022-08-24T15:18:47;3.87;;;2.20;;
8199;SDS011;4141;47.880;12.340;2022-08-24T15:21:22;3.93;;;2.23;;
8199;SDS011;4141;47.880;12.340;2022-08-24T15:24:04;2.53;;;1.80;;
8199;SDS011;4141;47.880;12.340;2022-08-24T15:26:56;4.90;;;2.17;;
8199;SDS011;4141;47.880;12.340;2022-08-24T15:29:29;3.03;;;1.80;;
8199;SDS011;4141;47.880;12.340;2022-08-24T15:32:01;4.40;;;1.93;;
8199;SDS011;4141;47.880;12.340;2022-08-24T15:34:38;3.13;;;1.80;;
8199;SDS011;4141;47.880;12.340;2022-08-24T15:37:10;2.77;;;2.00;;
8199;SDS011;4141;47.880;12.340;2022-08-24T15:39:39;3.00;;;2.20;;
8199;SDS011;4141;47.880;12.340;2022-08-24T15:42:08;3.20;;;2.10;;
8199;SDS011;4141;47.880;12.340;2022-08-24T15:44:39;2.60;;;1.97;;
8199;SDS011;4141;47.880;12.340;2022-08-24T15:47:13;3.47;;;1.63;;
8199;SDS011;4141;47.880;12.340;2022-08-24T15:49:48;2.80;;;1.80;;
8199;SDS011;4141;47.880;12.340;2022-08-24T15:55:15;3.17;;;2.13;;
8199;SDS011;4141;47.880;12.340;2022-08-24T15:57:56;3.10;;;1.77;;
8199;SDS011;4141;47.880;12.340;2022-08-24T16:00:33;2.43;;;1.90;;
8199;SDS011;4141;47.880;12.340;2022-08-24T16:03:21;2.30;;;1.70;;
8199;SDS011;4141;47.880;12.340;2022-08-24T16:06:16;2.00;;;1.67;;
8199;SDS011;4141;47.880;12.340;2022-08-24T16:08:54;7.00;;;1.70;;
8199;SDS011;4141;47.880;12.340;2022-08-24T16:11:27;6.73;;;1.90;;
8199;SDS011;4141;47.880;12.340;2022-08-24T16:13:58;3.60;;;1.90;;
8199;SDS011;4141;47.880;12.340;2022-08-24T16:16:31;2.53;;;1.90;;
8199;SDS011;4141;47.880;12.340;2022-08-24T16:19:03;5.67;;;1.90;;
8199;SDS011;4141;47.880;12.340;2022-08-24T16:21:34;4.50;;;2.03;;